Time;durP1;ratioP1;P1;durP2;ratioP2;P2;SDS_P1;SDS_P2;PMS_P1;PMS_P2;Temp;Humidity;BMP_temperature;BMP_pressure;BME280_temperature;BME280_humidity;BME280_pressure;Samples;Min_cycle;Max_cycle;Signal;HPM_P1;HPM_P2
2021/05/16 00:08:17;;;;;;;0.73;0.73;;;16.70;99.90;;;;;;20778974;28;20222;-68
2021/05/16 00:18:21;;;;;;;0.57;0.57;;;16.60;99.90;;;;;;20781583;28;20919;-68
2021/05/16 00:28:24;;;;;;;0.87;0.57;;;16.30;99.90;;;;;;20777475;28;20287;-69
2021/05/16 00:38:28;;;;;;;0.23;0.23;;;16.20;99.90;;;;;;20727807;28;20213;-69
2021/05/16 00:48:31;;;;;;;0.20;0.10;;;16.00;99.90;;;;;;20679046;28;20227;-68
2021/05/16 00:58:36;;;;;;;0.77;0.57;;;16.00;99.90;;;;;;20697555;28;20199;-68
2021/05/16 01:08:39;;;;;;;0.30;0.30;;;15.90;99.90;;;;;;20692933;28;20241;-67
2021/05/16 01:18:43;;;;;;;0.27;0.27;;;15.90;99.90;;;;;;20695190;28;20245;-68
2021/05/16 01:28:47;;;;;;;1.47;0.83;;;15.90;99.90;;;;;;20676273;28;20681;-68
2021/05/16 01:38:49;;;;;;;0.30;0.20;;;16.10;99.90;;;;;;20699727;28;20449;-68
2021/05/16 01:48:54;;;;;;;0.20;0.20;;;16.00;99.90;;;;;;20773351;28;20271;-69
2021/05/16 01:58:58;;;;;;;0.20;0.10;;;16.10;99.90;;;;;;20776885;28;20198;-69
2021/05/16 02:09:02;;;;;;;0.20;0.20;;;16.00;99.90;;;;;;20773375;28;20230;-69
2021/05/16 02:19:05;;;;;;;0.20;0.20;;;16.20;99.90;;;;;;20773174;28;20659;-68
2021/05/16 02:29:10;;;;;;;0.43;0.43;;;16.10;99.90;;;;;;20786010;28;20222;-68
2021/05/16 02:39:13;;;;;;;2.17;0.83;;;15.90;99.90;;;;;;20780041;28;20282;-69
2021/05/16 02:49:17;;;;;;;0.47;0.30;;;15.80;99.90;;;;;;20704158;28;20215;-69
2021/05/16 02:59:21;;;;;;;0.20;0.20;;;15.60;99.90;;;;;;20704957;28;20462;-68
2021/05/16 03:09:27;;;;;;;1.03;0.93;;;15.80;99.90;;;;;;20703496;28;20234;-68
2021/05/16 03:19:30;;;;;;;1.90;0.43;;;15.50;99.90;;;;;;20705145;28;20296;-67
2021/05/16 03:29:35;;;;;;;0.20;0.20;;;15.50;99.90;;;;;;20701662;28;20688;-67
2021/05/16 03:39:38;;;;;;;7.93;0.83;;;15.70;99.90;;;;;;20715043;28;20623;-69
2021/05/16 03:49:42;;;;;;;0.40;0.33;;;15.60;99.90;;;;;;20763343;28;20233;-69
2021/05/16 03:59:45;;;;;;;0.70;0.40;;;15.60;99.90;;;;;;20784441;28;20300;-69
2021/05/16 04:09:49;;;;;;;0.70;0.70;;;15.70;99.90;;;;;;20705778;28;20218;-70
2021/05/16 04:19:53;;;;;;;0.63;0.63;;;15.50;99.90;;;;;;20702147;28;20211;-70
2021/05/16 04:29:57;;;;;;;0.27;0.23;;;15.40;99.90;;;;;;20700117;28;20230;-68
2021/05/16 04:40:00;;;;;;;2.30;0.83;;;15.50;99.90;;;;;;20713543;28;20194;-69
2021/05/16 04:50:05;;;;;;;0.40;0.20;;;15.70;99.90;;;;;;20776074;28;20611;-69
2021/05/16 05:00:09;;;;;;;10.00;0.50;;;15.70;99.90;;;;;;20780910;28;20250;-71
2021/05/16 05:10:14;;;;;;;0.20;0.10;;;15.70;99.90;;;;;;20775555;28;20226;-69
2021/05/16 05:20:17;;;;;;;2.10;0.93;;;15.80;99.90;;;;;;20778351;28;20191;-69
2021/05/16 05:30:22;;;;;;;0.20;0.20;;;15.80;99.90;;;;;;20776867;28;20604;-69
2021/05/16 05:40:25;;;;;;;0.87;0.63;;;16.00;99.90;;;;;;20757811;28;20547;-70
2021/05/16 05:50:29;;;;;;;0.73;0.73;;;16.30;99.90;;;;;;20695245;28;20241;-69
2021/05/16 06:00:32;;;;;;;0.20;0.10;;;16.70;99.90;;;;;;20695079;28;20273;-69
2021/05/16 06:10:36;;;;;;;0.30;0.20;;;17.20;99.90;;;;;;20693471;28;20373;-70
2021/05/16 06:20:39;;;;;;;0.70;0.70;;;17.40;99.90;;;;;;20693598;28;20199;-70
2021/05/16 06:30:43;;;;;;;0.50;0.50;;;17.70;99.90;;;;;;20691924;28;20218;-70
2021/05/16 06:40:47;;;;;;;2.80;1.23;;;18.10;99.90;;;;;;20714964;28;20586;-70
2021/05/16 06:50:50;;;;;;;0.47;0.23;;;18.20;99.90;;;;;;20772347;28;20244;-70
2021/05/16 07:00:54;;;;;;;0.20;0.20;;;18.20;99.90;;;;;;20766780;28;20218;-70
2021/05/16 07:10:58;;;;;;;0.27;0.27;;;18.40;99.90;;;;;;20694575;28;20244;-69
2021/05/16 07:21:01;;;;;;;0.20;0.10;;;18.60;99.90;;;;;;20704926;28;20191;-71
2021/05/16 07:31:05;;;;;;;1.87;0.87;;;19.20;99.90;;;;;;20701761;28;20222;-69
2021/05/16 07:41:08;;;;;;;0.20;0.20;;;19.30;99.90;;;;;;20666643;28;20210;-67
2021/05/16 07:51:12;;;;;;;0.93;0.50;;;19.80;99.90;;;;;;20651760;28;20268;-66
2021/05/16 08:01:15;;;;;;;2.20;1.70;;;20.00;99.90;;;;;;20700757;28;20274;-66
2021/05/16 08:11:21;;;;;;;0.40;0.40;;;20.30;99.90;;;;;;20649234;28;20231;-65
2021/05/16 08:21:24;;;;;;;0.67;0.67;;;20.00;99.90;;;;;;20637077;28;20669;-66
2021/05/16 08:31:28;;;;;;;0.40;0.40;;;20.10;99.90;;;;;;20632190;28;20219;-66
2021/05/16 08:41:33;;;;;;;0.20;0.10;;;20.10;99.90;;;;;;20685585;28;20201;-64
2021/05/16 08:51:39;;;;;;;4.03;0.57;;;20.30;99.90;;;;;;20783278;28;20949;-65
2021/05/16 09:01:49;;;;;;;6.47;2.13;;;20.10;99.90;;;;;;20773866;28;20222;-64
2021/05/16 09:11:55;;;;;;;0.77;0.77;;;19.80;99.90;;;;;;20775733;28;20957;-65
2021/05/16 09:21:59;;;;;;;7.77;0.83;;;19.80;99.90;;;;;;20689725;28;20202;-66
2021/05/16 09:32:04;;;;;;;1.13;0.40;;;20.10;99.90;;;;;;20691272;28;20233;-66
2021/05/16 09:42:11;;;;;;;2.27;0.70;;;20.30;99.90;;;;;;20723492;28;20206;-65
2021/05/16 09:52:16;;;;;;;0.43;0.43;;;20.00;99.90;;;;;;20754713;28;20279;-66
2021/05/16 10:02:21;;;;;;;0.30;0.30;;;20.90;99.90;;;;;;20755574;28;20237;-64
2021/05/16 10:12:25;;;;;;;0.20;0.20;;;21.00;99.90;;;;;;20670386;28;20229;-66
2021/05/16 10:22:28;;;;;;;1.03;0.93;;;21.40;99.90;;;;;;20651699;28;20302;-64
2021/05/16 10:32:38;;;;;;;0.20;0.20;;;21.60;99.90;;;;;;20647091;28;20222;-63
2021/05/16 10:42:44;;;;;;;0.33;0.33;;;22.10;99.90;;;;;;20652160;28;20212;-68
2021/05/16 10:52:57;;;;;;;0.20;0.10;;;21.80;99.90;;;;;;20672617;28;20263;-67
2021/05/16 11:03:03;;;;;;;2.27;0.67;;;22.30;99.90;;;;;;20607430;28;20701;-64
2021/05/16 11:13:12;;;;;;;4.00;1.00;;;22.80;99.90;;;;;;20633062;28;20230;-67
2021/05/16 11:23:22;;;;;;;1.23;1.10;;;21.60;99.90;;;;;;20705840;28;20201;-66
2021/05/16 11:33:27;;;;;;;9.43;0.83;;;21.90;99.90;;;;;;20708850;28;20234;-66
2021/05/16 11:43:31;;;;;;;2.30;0.60;;;22.20;99.90;;;;;;20760691;28;20584;-66
2021/05/16 11:53:36;;;;;;;0.60;0.60;;;23.40;99.90;;;;;;20787726;28;20234;-65
2021/05/16 12:03:58;;;;;;;0.60;0.57;;;25.30;99.90;;;;;;20781672;28;20238;-64
2021/05/16 12:14:08;;;;;;;0.63;0.63;;;25.00;99.90;;;;;;20745713;28;20701;-66
2021/05/16 12:24:11;;;;;;;3.05;2.80;;;26.00;99.90;;;;;;20780052;28;20194;-64
2021/05/16 12:34:16;;;;;;;0.50;0.50;;;26.10;99.90;;;;;;20763000;28;20222;-64
2021/05/16 12:44:24;;;;;;;3.47;0.85;;;24.50;99.90;;;;;;20732082;28;20558;-64
2021/05/16 12:54:29;;;;;;;0.47;0.35;;;24.20;99.90;;;;;;20698210;28;20742;-67
2021/05/16 13:04:43;;;;;;;0.67;0.60;;;23.00;99.90;;;;;;20697324;28;20599;-66
2021/05/16 13:14:53;;;;;;;1.80;0.93;;;22.70;99.90;;;;;;20694783;28;20634;-65
2021/05/16 13:24:57;;;;;;;0.52;0.30;;;22.90;99.90;;;;;;20695742;28;20194;-64
2021/05/16 13:35:01;;;;;;;2.75;0.80;;;25.20;99.90;;;;;;20675244;28;20203;-65
2021/05/16 13:45:07;;;;;;;0.80;0.80;;;26.60;99.90;;;;;;20698456;28;20552;-63
2021/05/16 13:55:12;;;;;;;0.82;0.40;;;25.30;99.90;;;;;;20690954;28;20202;-62
2021/05/16 14:05:15;;;;;;;1.17;0.35;;;23.30;99.90;;;;;;20692011;28;20714;-62
2021/05/16 14:15:19;;;;;;;0.60;0.20;;;23.90;99.90;;;;;;20677355;28;20197;-63
2021/05/16 14:25:22;;;;;;;0.87;0.60;;;23.10;99.90;;;;;;20716272;28;20680;-63
2021/05/16 14:35:26;;;;;;;1.20;0.47;;;23.30;99.90;;;;;;20717364;28;20205;-66
2021/05/16 14:45:30;;;;;;;1.20;0.30;;;23.00;99.90;;;;;;20776464;28;20220;-65
2021/05/16 14:55:34;;;;;;;0.20;0.10;;;22.80;99.90;;;;;;20798035;28;20200;-64
2021/05/16 15:05:37;;;;;;;0.80;0.35;;;25.70;99.90;;;;;;20798708;28;20320;-66
2021/05/16 15:15:41;;;;;;;0.50;0.40;;;24.00;99.90;;;;;;20797771;28;20376;-65
2021/05/16 15:25:44;;;;;;;1.48;0.93;;;24.20;99.90;;;;;;20797305;28;20296;-66
2021/05/16 15:35:48;;;;;;;0.25;0.20;;;24.50;99.90;;;;;;20784608;28;20206;-64
2021/05/16 15:45:51;;;;;;;1.23;1.13;;;23.90;99.90;;;;;;20718134;28;20235;-64
2021/05/16 15:55:55;;;;;;;1.75;0.40;;;22.90;99.90;;;;;;20701699;28;20222;-66
2021/05/16 16:05:58;;;;;;;0.60;0.50;;;25.50;99.90;;;;;;20693214;28;20227;-65
2021/05/16 16:16:02;;;;;;;1.23;0.97;;;22.70;99.90;;;;;;20663142;28;20195;-66
2021/05/16 16:26:05;;;;;;;0.67;0.50;;;22.90;99.90;;;;;;20621460;28;20803;-63
2021/05/16 16:36:09;;;;;;;0.40;0.30;;;22.10;99.90;;;;;;20654018;28;20209;-65
2021/05/16 16:46:13;;;;;;;4.07;0.52;;;23.80;99.90;;;;;;20761770;28;20374;-64
2021/05/16 16:56:20;;;;;;;0.30;0.30;;;24.40;99.90;;;;;;20761089;28;20276;-63
2021/05/16 17:06:23;;;;;;;0.93;0.50;;;23.10;99.90;;;;;;20721814;28;20231;-65
2021/05/16 17:16:27;;;;;;;1.27;0.77;;;24.20;99.90;;;;;;20691851;28;20213;-64
2021/05/16 17:26:30;;;;;;;8.67;3.33;;;21.70;99.90;;;;;;20682402;28;20229;-65
2021/05/16 17:36:34;;;;;;;0.20;0.20;;;21.10;99.90;;;;;;20617949;28;20210;-65
2021/05/16 17:46:42;;;;;;;0.93;0.50;;;20.40;99.90;;;;;;20684428;28;20231;-65
2021/05/16 17:56:46;;;;;;;0.53;0.50;;;20.30;99.90;;;;;;20639533;28;20194;-65
2021/05/16 18:06:51;;;;;;;0.43;0.33;;;19.90;99.90;;;;;;20637292;28;20362;-65
2021/05/16 18:16:55;;;;;;;1.00;0.93;;;19.90;99.90;;;;;;20663392;28;20196;-65
2021/05/16 18:26:58;;;;;;;5.83;0.70;;;19.40;99.90;;;;;;20615290;28;20231;-65
2021/05/16 18:37:03;;;;;;;0.50;0.30;;;19.40;99.90;;;;;;20616891;28;20543;-64
2021/05/16 18:47:07;;;;;;;20.57;1.37;;;19.40;99.90;;;;;;20753734;28;20418;-65
2021/05/16 18:57:11;;;;;;;1.00;0.93;;;19.30;99.90;;;;;;20696313;28;20637;-64
2021/05/16 19:07:16;;;;;;;2.70;0.90;;;19.50;99.90;;;;;;20655369;28;20698;-66
2021/05/16 19:17:20;;;;;;;3.73;0.47;;;19.10;99.90;;;;;;20671254;28;20203;-65
2021/05/16 19:27:23;;;;;;;1.70;0.90;;;19.00;99.90;;;;;;20692024;28;20742;-67
2021/05/16 19:37:28;;;;;;;2.13;0.87;;;18.90;99.90;;;;;;20656111;28;20200;-66
2021/05/16 19:47:31;;;;;;;0.40;0.30;;;19.00;99.90;;;;;;20682155;28;20283;-69
2021/05/16 19:57:35;;;;;;;2.30;1.00;;;18.90;99.90;;;;;;20647011;28;20244;-66
2021/05/16 20:07:40;;;;;;;0.50;0.40;;;18.90;99.90;;;;;;20634288;28;20238;-66
2021/05/16 20:17:44;;;;;;;0.40;0.40;;;18.50;99.90;;;;;;20617807;28;20187;-66
2021/05/16 20:27:48;;;;;;;0.23;0.10;;;18.60;99.90;;;;;;20674917;28;20623;-64
2021/05/16 20:37:53;;;;;;;1.83;0.17;;;18.70;99.90;;;;;;20681939;28;20199;-66
2021/05/16 20:47:57;;;;;;;0.43;0.43;;;18.60;99.90;;;;;;20654068;28;20238;-65
2021/05/16 20:58:02;;;;;;;0.30;0.30;;;18.10;99.90;;;;;;20652982;28;20935;-65
2021/05/16 21:08:06;;;;;;;0.77;0.57;;;18.20;99.90;;;;;;20631319;28;20738;-65
2021/05/16 21:18:10;;;;;;;0.23;0.23;;;18.00;99.90;;;;;;20625102;28;20211;-68
2021/05/16 21:28:13;;;;;;;3.57;0.70;;;18.30;99.90;;;;;;20647062;28;20227;-66
2021/05/16 21:38:17;;;;;;;2.50;0.27;;;18.40;99.90;;;;;;20656547;28;20563;-67
2021/05/16 21:48:20;;;;;;;0.20;0.10;;;18.30;99.90;;;;;;20591951;28;20219;-66
2021/05/16 21:58:24;;;;;;;0.20;0.17;;;18.00;99.90;;;;;;20634615;28;20199;-67
2021/05/16 22:08:27;;;;;;;0.47;0.47;;;17.90;99.90;;;;;;20626278;28;21145;-66
2021/05/16 22:18:31;;;;;;;0.80;0.40;;;17.70;99.90;;;;;;20611405;28;20310;-66
2021/05/16 22:28:34;;;;;;;0.23;0.23;;;17.50;99.90;;;;;;20645910;28;20715;-65
2021/05/16 22:38:38;;;;;;;0.20;0.17;;;17.50;99.90;;;;;;20759976;28;20201;-66
2021/05/16 22:48:41;;;;;;;0.40;0.40;;;17.30;99.90;;;;;;20706380;28;20219;-68
2021/05/16 22:58:45;;;;;;;0.50;0.27;;;17.30;99.90;;;;;;20683556;28;20198;-67
2021/05/16 23:08:49;;;;;;;0.70;0.30;;;17.50;99.90;;;;;;20645089;28;20223;-67
2021/05/16 23:18:54;;;;;;;0.30;0.23;;;17.30;99.90;;;;;;20665115;28;20230;-67
2021/05/16 23:28:57;;;;;;;0.27;0.17;;;17.10;99.90;;;;;;20674073;28;20219;-66
2021/05/16 23:39:03;;;;;;;1.00;0.53;;;17.00;99.90;;;;;;20665532;28;20201;-67
2021/05/16 23:49:07;;;;;;;0.23;0.20;;;16.90;99.90;;;;;;20696472;28;20676;-67
